Aviation Digital Data Service (ADDS)

Output produced by METARs form (1322 UTC 16 September 2019)
found at http://www.aviationweather.gov/metar/data/
 
METAR text: OEDF 161300Z 03010KT CAVOK 39/14 Q1005 NOSIG
Conditions at: OEDF (KING FAHD INTL , SA) observed 1300 UTC 16 September 2019
Temperature: 39.0°C (102°F)
Dewpoint: 14.0°C (57°F) [RH = 23%]
Pressure (altimeter): 29.68 inches Hg (1005.0 mb)
Winds: from the NNE (30 degrees) at 12 MPH (10 knots; 5.1 m/s)
Visibility: 6 or more miles (10+ km)
Ceiling: ceiling and visibility are OK
Clouds: unknown
Weather: no significant weather observed at this time

METAR text: OEDF 161200Z 04010KT CAVOK 39/17 Q1005 NOSIG
Conditions at: OEDF (KING FAHD INTL , SA) observed 1200 UTC 16 September 2019
Temperature: 39.0°C (102°F)
Dewpoint: 17.0°C (63°F) [RH = 28%]
Pressure (altimeter): 29.68 inches Hg (1005.0 mb)
Winds: from the NE (40 degrees) at 12 MPH (10 knots; 5.1 m/s)
Visibility: 6 or more miles (10+ km)
Ceiling: ceiling and visibility are OK
Clouds: unknown
Weather: no significant weather observed at this time

METAR text: OEDF 161100Z 06012KT CAVOK 40/16 Q1005 NOSIG
Conditions at: OEDF (KING FAHD INTL , SA) observed 1100 UTC 16 September 2019
Temperature: 40.0°C (104°F)
Dewpoint: 16.0°C (61°F) [RH = 25%]
Pressure (altimeter): 29.68 inches Hg (1005.0 mb)
Winds: from the ENE (60 degrees) at 14 MPH (12 knots; 6.2 m/s)
Visibility: 6 or more miles (10+ km)
Ceiling: ceiling and visibility are OK
Clouds: unknown
Weather: no significant weather observed at this time

METAR text: OEDF 161000Z 03006KT CAVOK 42/05 Q1006 NOSIG
Conditions at: OEDF (KING FAHD INTL , SA) observed 1000 UTC 16 September 2019
Temperature: 42.0°C (108°F)
Dewpoint: 5.0°C (41°F) [RH = 11%]
Pressure (altimeter): 29.70 inches Hg (1006.0 mb)
Winds: from the NNE (30 degrees) at 7 MPH (6 knots; 3.1 m/s)
Visibility: 6 or more miles (10+ km)
Ceiling: ceiling and visibility are OK
Clouds: unknown
Weather: no significant weather observed at this time

METAR text: OEDF 160900Z 35008KT CAVOK 41/06 Q1006 NOSIG
Conditions at: OEDF (KING FAHD INTL , SA) observed 0900 UTC 16 September 2019
Temperature: 41.0°C (106°F)
Dewpoint: 6.0°C (43°F) [RH = 12%]
Pressure (altimeter): 29.70 inches Hg (1006.0 mb)
Winds: from the N (350 degrees) at 9 MPH (8 knots; 4.1 m/s)
Visibility: 6 or more miles (10+ km)
Ceiling: ceiling and visibility are OK
Clouds: unknown
Weather: no significant weather observed at this time

METAR text: OEDF 160800Z 34006KT CAVOK 39/10 Q1007 NOSIG
Conditions at: OEDF (KING FAHD INTL , SA) observed 0800 UTC 16 September 2019
Temperature: 39.0°C (102°F)
Dewpoint: 10.0°C (50°F) [RH = 18%]
Pressure (altimeter): 29.73 inches Hg (1007.0 mb)
Winds: from the NNW (340 degrees) at 7 MPH (6 knots; 3.1 m/s)
Visibility: 6 or more miles (10+ km)
Ceiling: ceiling and visibility are OK
Clouds: unknown
Weather: no significant weather observed at this time

METAR text: OEDF 160700Z 31004KT CAVOK 36/14 Q1008 NOSIG
Conditions at: OEDF (KING FAHD INTL , SA) observed 0700 UTC 16 September 2019
Temperature: 36.0°C (97°F)
Dewpoint: 14.0°C (57°F) [RH = 27%]
Pressure (altimeter): 29.76 inches Hg (1008.0 mb)
Winds: from the NW (310 degrees) at 5 MPH (4 knots; 2.1 m/s)
Visibility: 6 or more miles (10+ km)
Ceiling: ceiling and visibility are OK
Clouds: unknown
Weather: no significant weather observed at this time

METAR text: OEDF 160600Z VRB02KT 9000 NSC 33/21 Q1008 NOSIG
Conditions at: OEDF (KING FAHD INTL , SA) observed 0600 UTC 16 September 2019
Temperature: 33.0°C (91°F)
Dewpoint: 21.0°C (70°F) [RH = 49%]
Pressure (altimeter): 29.76 inches Hg (1008.0 mb)
Winds: variable direction winds at 2 MPH (2 knots; 1.0 m/s)
Visibility: 6 miles ( 9 km)
Ceiling: at least 12,000 feet AGL
Clouds: sky clear below 12,000 feet AGL
Weather: no significant weather observed at this time

METAR text: OEDF 160500Z 21005KT 7000 NSC 27/24 Q1007 NOSIG
Conditions at: OEDF (KING FAHD INTL , SA) observed 0500 UTC 16 September 2019
Temperature: 27.0°C (81°F)
Dewpoint: 24.0°C (75°F) [RH = 84%]
Pressure (altimeter): 29.73 inches Hg (1007.0 mb)
Winds: from the SSW (210 degrees) at 6 MPH (5 knots; 2.6 m/s)
Visibility: 4 miles ( 7 km)
Ceiling: at least 12,000 feet AGL
Clouds: sky clear below 12,000 feet AGL
Weather: no significant weather observed at this time

METAR text: OEDF 160400Z 18006KT 0050 FG /// 25/24 Q1007 NOSIG
Conditions at: OEDF (KING FAHD INTL , SA) observed 0400 UTC 16 September 2019
Temperature: 25.0°C (77°F)
Dewpoint: 24.0°C (75°F) [RH = 94%]
Pressure (altimeter): 29.73 inches Hg (1007.0 mb)
Winds: from the S (180 degrees) at 7 MPH (6 knots; 3.1 m/s)
Visibility: 0.03 miles (0.05 km)
Ceiling: unknown
Clouds: missing
Weather: FG  (fog)

METAR text: OEDF 160300Z 17006KT 6000 NSC 23/17 Q1006 NOSIG
Conditions at: OEDF (KING FAHD INTL , SA) observed 0300 UTC 16 September 2019
Temperature: 23.0°C (73°F)
Dewpoint: 17.0°C (63°F) [RH = 69%]
Pressure (altimeter): 29.70 inches Hg (1006.0 mb)
Winds: from the S (170 degrees) at 7 MPH (6 knots; 3.1 m/s)
Visibility: 4 miles ( 6 km)
Ceiling: at least 12,000 feet AGL
Clouds: sky clear below 12,000 feet AGL
Weather: no significant weather observed at this time

METAR text: OEDF 160200Z 17006KT 8000 NSC 22/17 Q1006 NOSIG
Conditions at: OEDF (KING FAHD INTL , SA) observed 0200 UTC 16 September 2019
Temperature: 22.0°C (72°F)
Dewpoint: 17.0°C (63°F) [RH = 73%]
Pressure (altimeter): 29.70 inches Hg (1006.0 mb)
Winds: from the S (170 degrees) at 7 MPH (6 knots; 3.1 m/s)
Visibility: 5 miles ( 8 km)
Ceiling: at least 12,000 feet AGL
Clouds: sky clear below 12,000 feet AGL
Weather: no significant weather observed at this time

METAR text: OEDF 160100Z VRB03KT 8000 NSC 23/18 Q1006 NOSIG
Conditions at: OEDF (KING FAHD INTL , SA) observed 0100 UTC 16 September 2019
Temperature: 23.0°C (73°F)
Dewpoint: 18.0°C (64°F) [RH = 73%]
Pressure (altimeter): 29.70 inches Hg (1006.0 mb)
Winds: variable direction winds at 3 MPH (3 knots; 1.5 m/s)
Visibility: 5 miles ( 8 km)
Ceiling: at least 12,000 feet AGL
Clouds: sky clear below 12,000 feet AGL
Weather: no significant weather observed at this time

METAR text: OEDF 160000Z 22005KT 8000 NSC 24/19 Q1005 NOSIG
Conditions at: OEDF (KING FAHD INTL , SA) observed 0000 UTC 16 September 2019
Temperature: 24.0°C (75°F)
Dewpoint: 19.0°C (66°F) [RH = 74%]
Pressure (altimeter): 29.68 inches Hg (1005.0 mb)
Winds: from the SW (220 degrees) at 6 MPH (5 knots; 2.6 m/s)
Visibility: 5 miles ( 8 km)
Ceiling: at least 12,000 feet AGL
Clouds: sky clear below 12,000 feet AGL
Weather: no significant weather observed at this time

METAR text: OEDF 152300Z 22004KT 8000 NSC 24/20 Q1005 NOSIG
Conditions at: OEDF (KING FAHD INTL , SA) observed 2300 UTC 15 September 2019
Temperature: 24.0°C (75°F)
Dewpoint: 20.0°C (68°F) [RH = 78%]
Pressure (altimeter): 29.68 inches Hg (1005.0 mb)
Winds: from the SW (220 degrees) at 5 MPH (4 knots; 2.1 m/s)
Visibility: 5 miles ( 8 km)
Ceiling: at least 12,000 feet AGL
Clouds: sky clear below 12,000 feet AGL
Weather: no significant weather observed at this time

METAR text: OEDF 152200Z 00000KT 8000 NSC 26/21 Q1006 NOSIG
Conditions at: OEDF (KING FAHD INTL , SA) observed 2200 UTC 15 September 2019
Temperature: 26.0°C (79°F)
Dewpoint: 21.0°C (70°F) [RH = 74%]
Pressure (altimeter): 29.70 inches Hg (1006.0 mb)
Winds: calm
Visibility: 5 miles ( 8 km)
Ceiling: at least 12,000 feet AGL
Clouds: sky clear below 12,000 feet AGL
Weather: no significant weather observed at this time

METAR text: OEDF 152100Z 00000KT CAVOK 27/22 Q1006 NOSIG
Conditions at: OEDF (KING FAHD INTL , SA) observed 2100 UTC 15 September 2019
Temperature: 27.0°C (81°F)
Dewpoint: 22.0°C (72°F) [RH = 74%]
Pressure (altimeter): 29.70 inches Hg (1006.0 mb)
Winds: calm
Visibility: 6 or more miles (10+ km)
Ceiling: ceiling and visibility are OK
Clouds: unknown
Weather: no significant weather observed at this time

METAR text: OEDF 152000Z 00000KT CAVOK 29/23 Q1007 NOSIG
Conditions at: OEDF (KING FAHD INTL , SA) observed 2000 UTC 15 September 2019
Temperature: 29.0°C (84°F)
Dewpoint: 23.0°C (73°F) [RH = 70%]
Pressure (altimeter): 29.73 inches Hg (1007.0 mb)
Winds: calm
Visibility: 6 or more miles (10+ km)
Ceiling: ceiling and visibility are OK
Clouds: unknown
Weather: no significant weather observed at this time

METAR text: OEDF 151900Z 11003KT CAVOK 30/24 Q1007 NOSIG
Conditions at: OEDF (KING FAHD INTL , SA) observed 1900 UTC 15 September 2019
Temperature: 30.0°C (86°F)
Dewpoint: 24.0°C (75°F) [RH = 70%]
Pressure (altimeter): 29.73 inches Hg (1007.0 mb)
Winds: from the ESE (110 degrees) at 3 MPH (3 knots; 1.5 m/s)
Visibility: 6 or more miles (10+ km)
Ceiling: ceiling and visibility are OK
Clouds: unknown
Weather: no significant weather observed at this time

METAR text: OEDF 151800Z 05003KT CAVOK 30/22 Q1007 NOSIG
Conditions at: OEDF (KING FAHD INTL , SA) observed 1800 UTC 15 September 2019
Temperature: 30.0°C (86°F)
Dewpoint: 22.0°C (72°F) [RH = 62%]
Pressure (altimeter): 29.73 inches Hg (1007.0 mb)
Winds: from the NE (50 degrees) at 3 MPH (3 knots; 1.5 m/s)
Visibility: 6 or more miles (10+ km)
Ceiling: ceiling and visibility are OK
Clouds: unknown
Weather: no significant weather observed at this time

METAR text: OEDF 151700Z 05005KT CAVOK 32/21 Q1007 NOSIG
Conditions at: OEDF (KING FAHD INTL , SA) observed 1700 UTC 15 September 2019
Temperature: 32.0°C (90°F)
Dewpoint: 21.0°C (70°F) [RH = 52%]
Pressure (altimeter): 29.73 inches Hg (1007.0 mb)
Winds: from the NE (50 degrees) at 6 MPH (5 knots; 2.6 m/s)
Visibility: 6 or more miles (10+ km)
Ceiling: ceiling and visibility are OK
Clouds: unknown
Weather: no significant weather observed at this time

METAR text: OEDF 151600Z 06007KT CAVOK 34/18 Q1006 NOSIG
Conditions at: OEDF (KING FAHD INTL , SA) observed 1600 UTC 15 September 2019
Temperature: 34.0°C (93°F)
Dewpoint: 18.0°C (64°F) [RH = 39%]
Pressure (altimeter): 29.70 inches Hg (1006.0 mb)
Winds: from the ENE (60 degrees) at 8 MPH (7 knots; 3.6 m/s)
Visibility: 6 or more miles (10+ km)
Ceiling: ceiling and visibility are OK
Clouds: unknown
Weather: no significant weather observed at this time

METAR text: OEDF 151500Z 06010KT CAVOK 36/16 Q1005 NOSIG
Conditions at: OEDF (KING FAHD INTL , SA) observed 1500 UTC 15 September 2019
Temperature: 36.0°C (97°F)
Dewpoint: 16.0°C (61°F) [RH = 31%]
Pressure (altimeter): 29.68 inches Hg (1005.0 mb)
Winds: from the ENE (60 degrees) at 12 MPH (10 knots; 5.1 m/s)
Visibility: 6 or more miles (10+ km)
Ceiling: ceiling and visibility are OK
Clouds: unknown
Weather: no significant weather observed at this time

METAR text: OEDF 151400Z 04014KT CAVOK 38/14 Q1005 NOSIG
Conditions at: OEDF (KING FAHD INTL , SA) observed 1400 UTC 15 September 2019
Temperature: 38.0°C (100°F)
Dewpoint: 14.0°C (57°F) [RH = 24%]
Pressure (altimeter): 29.68 inches Hg (1005.0 mb)
Winds: from the NE (40 degrees) at 16 MPH (14 knots; 7.2 m/s)
Visibility: 6 or more miles (10+ km)
Ceiling: ceiling and visibility are OK
Clouds: unknown
Weather: no significant weather observed at this time

METAR text: OEDF 151300Z 04012KT CAVOK 40/09 Q1005 NOSIG
Conditions at: OEDF (KING FAHD INTL , SA) observed 1300 UTC 15 September 2019
Temperature: 40.0°C (104°F)
Dewpoint: 9.0°C (48°F) [RH = 16%]
Pressure (altimeter): 29.68 inches Hg (1005.0 mb)
Winds: from the NE (40 degrees) at 14 MPH (12 knots; 6.2 m/s)
Visibility: 6 or more miles (10+ km)
Ceiling: ceiling and visibility are OK
Clouds: unknown
Weather: no significant weather observed at this time

METAR text: OEDF 151200Z 04013KT CAVOK 41/09 Q1005 NOSIG
Conditions at: OEDF (KING FAHD INTL , SA) observed 1200 UTC 15 September 2019
Temperature: 41.0°C (106°F)
Dewpoint: 9.0°C (48°F) [RH = 15%]
Pressure (altimeter): 29.68 inches Hg (1005.0 mb)
Winds: from the NE (40 degrees) at 15 MPH (13 knots; 6.7 m/s)
Visibility: 6 or more miles (10+ km)
Ceiling: ceiling and visibility are OK
Clouds: unknown
Weather: no significant weather observed at this time

METAR text: OEDF 151100Z 04010KT CAVOK 42/09 Q1004 NOSIG
Conditions at: OEDF (KING FAHD INTL , SA) observed 1100 UTC 15 September 2019
Temperature: 42.0°C (108°F)
Dewpoint: 9.0°C (48°F) [RH = 14%]
Pressure (altimeter): 29.65 inches Hg (1004.0 mb)
Winds: from the NE (40 degrees) at 12 MPH (10 knots; 5.1 m/s)
Visibility: 6 or more miles (10+ km)
Ceiling: ceiling and visibility are OK
Clouds: unknown
Weather: no significant weather observed at this time

METAR text: OEDF 151000Z 02008KT CAVOK 43/03 Q1005 NOSIG
Conditions at: OEDF (KING FAHD INTL , SA) observed 1000 UTC 15 September 2019
Temperature: 43.0°C (109°F)
Dewpoint: 3.0°C (37°F) [RH =  9%]
Pressure (altimeter): 29.68 inches Hg (1005.0 mb)
Winds: from the NNE (20 degrees) at 9 MPH (8 knots; 4.1 m/s)
Visibility: 6 or more miles (10+ km)
Ceiling: ceiling and visibility are OK
Clouds: unknown
Weather: no significant weather observed at this time

METAR text: OEDF 150900Z 04004KT CAVOK 42/04 Q1006 NOSIG
Conditions at: OEDF (KING FAHD INTL , SA) observed 0900 UTC 15 September 2019
Temperature: 42.0°C (108°F)
Dewpoint: 4.0°C (39°F) [RH = 10%]
Pressure (altimeter): 29.70 inches Hg (1006.0 mb)
Winds: from the NE (40 degrees) at 5 MPH (4 knots; 2.1 m/s)
Visibility: 6 or more miles (10+ km)
Ceiling: ceiling and visibility are OK
Clouds: unknown
Weather: no significant weather observed at this time

METAR text: OEDF 150800Z 36004KT CAVOK 41/06 Q1006 NOSIG
Conditions at: OEDF (KING FAHD INTL , SA) observed 0800 UTC 15 September 2019
Temperature: 41.0°C (106°F)
Dewpoint: 6.0°C (43°F) [RH = 12%]
Pressure (altimeter): 29.70 inches Hg (1006.0 mb)
Winds: from the N (360 degrees) at 5 MPH (4 knots; 2.1 m/s)
Visibility: 6 or more miles (10+ km)
Ceiling: ceiling and visibility are OK
Clouds: unknown
Weather: no significant weather observed at this time

METAR text: OEDF 150700Z 00000KT CAVOK 40/08 Q1007 NOSIG
Conditions at: OEDF (KING FAHD INTL , SA) observed 0700 UTC 15 September 2019
Temperature: 40.0°C (104°F)
Dewpoint: 8.0°C (46°F) [RH = 15%]
Pressure (altimeter): 29.73 inches Hg (1007.0 mb)
Winds: calm
Visibility: 6 or more miles (10+ km)
Ceiling: ceiling and visibility are OK
Clouds: unknown
Weather: no significant weather observed at this time

METAR text: OEDF 150600Z 30005KT CAVOK 37/07 Q1007 NOSIG
Conditions at: OEDF (KING FAHD INTL , SA) observed 0600 UTC 15 September 2019
Temperature: 37.0°C (99°F)
Dewpoint: 7.0°C (45°F) [RH = 16%]
Pressure (altimeter): 29.73 inches Hg (1007.0 mb)
Winds: from the WNW (300 degrees) at 6 MPH (5 knots; 2.6 m/s)
Visibility: 6 or more miles (10+ km)
Ceiling: ceiling and visibility are OK
Clouds: unknown
Weather: no significant weather observed at this time

METAR text: OEDF 150500Z 28005KT CAVOK 33/06 Q1006 NOSIG
Conditions at: OEDF (KING FAHD INTL , SA) observed 0500 UTC 15 September 2019
Temperature: 33.0°C (91°F)
Dewpoint: 6.0°C (43°F) [RH = 19%]
Pressure (altimeter): 29.70 inches Hg (1006.0 mb)
Winds: from the W (280 degrees) at 6 MPH (5 knots; 2.6 m/s)
Visibility: 6 or more miles (10+ km)
Ceiling: ceiling and visibility are OK
Clouds: unknown
Weather: no significant weather observed at this time

METAR text: OEDF 150400Z VRB02KT CAVOK 30/05 Q1006 NOSIG
Conditions at: OEDF (KING FAHD INTL , SA) observed 0400 UTC 15 September 2019
Temperature: 30.0°C (86°F)
Dewpoint: 5.0°C (41°F) [RH = 21%]
Pressure (altimeter): 29.70 inches Hg (1006.0 mb)
Winds: variable direction winds at 2 MPH (2 knots; 1.0 m/s)
Visibility: 6 or more miles (10+ km)
Ceiling: ceiling and visibility are OK
Clouds: unknown
Weather: no significant weather observed at this time

METAR text: OEDF 150300Z 00000KT CAVOK 26/07 Q1005 NOSIG
Conditions at: OEDF (KING FAHD INTL , SA) observed 0300 UTC 15 September 2019
Temperature: 26.0°C (79°F)
Dewpoint: 7.0°C (45°F) [RH = 30%]
Pressure (altimeter): 29.68 inches Hg (1005.0 mb)
Winds: calm
Visibility: 6 or more miles (10+ km)
Ceiling: ceiling and visibility are OK
Clouds: unknown
Weather: no significant weather observed at this time

Forecast for: OEDF (KING FAHD INTL , SA)
Text: TAF OEDF 160800Z 1612/1718 05010KT CAVOK
Forecast period: 1200 to 1800 UTC 16 September 2019
Forecast type: FROM: standard forecast or significant change
Winds: from the NE (50 degrees) at 12 MPH (10 knots; 5.1 m/s)
Visibility: 6 or more miles 10+ km)
Ceiling: unknown
Clouds: missing
Weather: NSW  (no significant weather)
Text: BECMG 1618/1620 VRB03KT 7000 NSC
Forecast period: 1800 UTC 16 September 2019 to 1800 UTC 17 September 2019
Forecast type: BECOMING: Conditions expected to become as follows by 2000 UTC 16 September 2019
Winds: variable direction winds at 3 MPH (3 knots; 1.5 m/s)
Visibility: 4 miles (7 km)
Ceiling: unknown
Clouds: missing
Weather: NSW  (no significant weather)
Text: TEMPO 1700/1704 4000 BR
Forecast period: 0000 to 0400 UTC 17 September 2019
Forecast type: TEMPORARY: The following changes expected for less than half the time period
Visibility: 2.49 miles (4.01 km)
Ceiling: unknown
Clouds: missing
Weather: BR  (mist)
Text: PROB30
Forecast period: 0200 to 0400 UTC 17 September 2019
Forecast type: TEMPORARY: The following changes expected for less than half the time period
Visibility: 0.31 miles (0.50 km)
Ceiling: unknown
Clouds: missing
Weather: FG  (fog)